Time,TemperatureF,DewpointF,PressureIn,WindDirection,WindDirectionDegrees,WindSpeedMPH,WindSpeedGustMPH,Humidity,HourlyPrecipIn,Conditions,Clouds,dailyrainin,SoftwareType,DateUTC
2013-11-28 00:00:00,46.5,35.8,29.88,East,90,0.0,0.0,66,0.00,,,0.00,WeatherCatV1.23B14,2013-11-28 08:00:00,
2013-11-28 00:05:00,46.5,35.8,29.88,East,90,0.0,0.0,66,0.00,,,0.00,WeatherCatV1.23B14,2013-11-28 08:05:00,
2013-11-28 00:10:00,45.5,35.6,29.89,East,90,0.0,0.0,68,0.00,,,0.00,WeatherCatV1.23B14,2013-11-28 08:10:00,
2013-11-28 00:15:00,45.5,35.6,29.89,East,90,0.0,0.0,68,0.00,,,0.00,WeatherCatV1.23B14,2013-11-28 08:15:00,
2013-11-28 00:20:00,45.5,35.6,29.89,East,90,0.0,0.0,68,0.00,,,0.00,WeatherCatV1.23B14,2013-11-28 08:20:00,
2013-11-28 00:25:00,45.5,35.6,29.89,East,90,0.0,0.0,68,0.00,,,0.00,WeatherCatV1.23B14,2013-11-28 08:25:00,
2013-11-28 00:30:00,45.5,35.6,29.89,East,90,0.0,0.0,68,0.00,,,0.00,WeatherCatV1.23B14,2013-11-28 08:30:00,
2013-11-28 00:35:00,45.5,35.6,29.89,East,90,0.0,0.0,68,0.00,,,0.00,WeatherCatV1.23B14,2013-11-28 08:35:00,
2013-11-28 00:40:00,45.5,35.6,29.89,East,90,0.0,0.0,68,0.00,,,0.00,WeatherCatV1.23B14,2013-11-28 08:40:00,
2013-11-28 00:45:00,45.5,35.6,29.89,East,90,0.0,0.0,68,0.00,,,0.00,WeatherCatV1.23B14,2013-11-28 08:45:00,
2013-11-28 00:50:00,45.5,35.6,29.89,East,90,0.0,0.0,68,0.00,,,0.00,WeatherCatV1.23B14,2013-11-28 08:50:00,
2013-11-28 00:55:00,45.5,35.6,29.89,East,90,0.0,0.0,68,0.00,,,0.00,WeatherCatV1.23B14,2013-11-28 08:55:00,
2013-11-28 01:00:00,45.5,35.6,29.89,East,90,0.0,0.0,68,0.00,,,0.00,WeatherCatV1.23B14,2013-11-28 09:00:00,
2013-11-28 01:05:00,45.5,35.6,29.89,East,90,0.0,0.0,68,0.00,,,0.00,WeatherCatV1.23B14,2013-11-28 09:05:00,
2013-11-28 01:10:00,46.5,35.0,29.88,East,90,0.0,0.0,64,0.00,,,0.00,WeatherCatV1.23B14,2013-11-28 09:10:00,
2013-11-28 01:15:00,46.5,35.0,29.88,East,90,0.0,0.0,64,0.00,,,0.00,WeatherCatV1.23B14,2013-11-28 09:15:00,
2013-11-28 01:20:00,46.5,35.0,29.88,East,90,0.0,0.0,64,0.00,,,0.00,WeatherCatV1.23B14,2013-11-28 09:20:00,
2013-11-28 01:25:00,46.5,35.0,29.88,East,90,0.0,0.0,64,0.00,,,0.00,WeatherCatV1.23B14,2013-11-28 09:25:00,
2013-11-28 01:30:00,46.5,35.0,29.88,East,90,0.0,0.0,64,0.00,,,0.00,WeatherCatV1.23B14,2013-11-28 09:30:00,
2013-11-28 01:35:00,46.5,35.0,29.88,East,90,0.0,0.0,64,0.00,,,0.00,WeatherCatV1.23B14,2013-11-28 09:35:00,
2013-11-28 01:40:00,46.5,35.0,29.88,East,90,0.0,0.0,64,0.00,,,0.00,WeatherCatV1.23B14,2013-11-28 09:40:00,
2013-11-28 01:45:00,46.5,35.0,29.88,East,90,0.0,0.0,64,0.00,,,0.00,WeatherCatV1.23B14,2013-11-28 09:45:00,
2013-11-28 01:50:00,46.5,35.0,29.88,East,90,0.0,0.0,64,0.00,,,0.00,WeatherCatV1.23B14,2013-11-28 09:50:00,
2013-11-28 01:55:00,46.5,35.0,29.88,East,90,0.0,0.0,64,0.00,,,0.00,WeatherCatV1.23B14,2013-11-28 09:55:00,
2013-11-28 02:00:00,46.5,35.0,29.88,East,90,0.0,0.0,64,0.00,,,0.00,WeatherCatV1.23B14,2013-11-28 10:00:00,
2013-11-28 02:05:00,46.5,35.0,29.88,East,90,0.0,0.0,64,0.00,,,0.00,WeatherCatV1.23B14,2013-11-28 10:05:00,
2013-11-28 02:10:00,45.2,36.0,29.89,East,90,0.0,0.0,70,0.00,,,0.00,WeatherCatV1.23B14,2013-11-28 10:10:00,
2013-11-28 02:15:00,45.2,36.0,29.89,East,90,0.0,0.0,70,0.00,,,0.00,WeatherCatV1.23B14,2013-11-28 10:15:00,
2013-11-28 02:20:00,45.2,36.0,29.89,East,90,0.0,0.0,70,0.00,,,0.00,WeatherCatV1.23B14,2013-11-28 10:20:00,
2013-11-28 02:25:00,45.2,36.0,29.89,East,90,0.0,0.0,70,0.00,,,0.00,WeatherCatV1.23B14,2013-11-28 10:25:00,
2013-11-28 02:30:00,45.2,36.0,29.89,East,90,0.0,0.0,70,0.00,,,0.00,WeatherCatV1.23B14,2013-11-28 10:30:00,
2013-11-28 02:35:00,45.2,36.0,29.89,East,90,0.0,0.0,70,0.00,,,0.00,WeatherCatV1.23B14,2013-11-28 10:35:00,
2013-11-28 02:40:00,45.2,36.0,29.89,East,90,0.0,0.0,70,0.00,,,0.00,WeatherCatV1.23B14,2013-11-28 10:40:00,
2013-11-28 02:45:00,45.2,36.0,29.89,East,90,0.0,0.0,70,0.00,,,0.00,WeatherCatV1.23B14,2013-11-28 10:45:00,
2013-11-28 02:50:00,45.2,36.0,29.89,East,90,0.0,0.0,70,0.00,,,0.00,WeatherCatV1.23B14,2013-11-28 10:50:00,
2013-11-28 02:55:00,45.2,36.0,29.89,East,90,0.0,0.0,70,0.00,,,0.00,WeatherCatV1.23B14,2013-11-28 10:55:00,
2013-11-28 03:00:00,45.2,36.0,29.89,East,90,0.0,0.0,70,0.00,,,0.00,WeatherCatV1.23B14,2013-11-28 11:00:00,
2013-11-28 03:05:00,45.2,36.0,29.89,East,90,0.0,0.0,70,0.00,,,0.00,WeatherCatV1.23B14,2013-11-28 11:05:00,
2013-11-28 03:10:00,45.1,35.5,29.89,East,90,0.0,0.0,69,0.00,,,0.00,WeatherCatV1.23B14,2013-11-28 11:10:00,
2013-11-28 03:15:00,45.1,35.5,29.89,East,90,0.0,0.0,69,0.00,,,0.00,WeatherCatV1.23B14,2013-11-28 11:15:00,
2013-11-28 03:20:00,45.1,35.5,29.89,East,90,0.0,0.0,69,0.00,,,0.00,WeatherCatV1.23B14,2013-11-28 11:20:00,
2013-11-28 03:25:00,45.1,35.5,29.89,East,90,0.0,0.0,69,0.00,,,0.00,WeatherCatV1.23B14,2013-11-28 11:25:00,
2013-11-28 03:30:00,45.1,35.5,29.89,East,90,0.0,0.0,69,0.00,,,0.00,WeatherCatV1.23B14,2013-11-28 11:30:00,
2013-11-28 03:35:00,45.1,35.5,29.89,East,90,0.0,0.0,69,0.00,,,0.00,WeatherCatV1.23B14,2013-11-28 11:35:00,
2013-11-28 03:40:00,45.1,35.5,29.89,East,90,0.0,0.0,69,0.00,,,0.00,WeatherCatV1.23B14,2013-11-28 11:40:00,
2013-11-28 03:45:00,45.1,35.5,29.89,East,90,0.0,0.0,69,0.00,,,0.00,WeatherCatV1.23B14,2013-11-28 11:45:00,
2013-11-28 03:50:00,45.1,35.5,29.89,East,90,0.0,0.0,69,0.00,,,0.00,WeatherCatV1.23B14,2013-11-28 11:50:00,
2013-11-28 03:55:00,45.1,35.5,29.89,East,90,0.0,0.0,69,0.00,,,0.00,WeatherCatV1.23B14,2013-11-28 11:55:00,
2013-11-28 04:00:00,45.1,35.5,29.89,East,90,0.0,0.0,69,0.00,,,0.00,WeatherCatV1.23B14,2013-11-28 12:00:00,
2013-11-28 04:05:00,45.1,35.5,29.89,East,90,0.0,0.0,69,0.00,,,0.00,WeatherCatV1.23B14,2013-11-28 12:05:00,
2013-11-28 04:10:00,46.3,34.4,29.89,East,90,0.0,0.0,63,0.00,,,0.00,WeatherCatV1.23B14,2013-11-28 12:10:00,
2013-11-28 04:15:00,46.3,34.4,29.89,East,90,0.0,0.0,63,0.00,,,0.00,WeatherCatV1.23B14,2013-11-28 12:15:00,
2013-11-28 04:20:00,46.3,34.4,29.89,East,90,0.0,0.0,63,0.00,,,0.00,WeatherCatV1.23B14,2013-11-28 12:20:00,
2013-11-28 04:25:00,46.3,34.4,29.89,East,90,0.0,0.0,63,0.00,,,0.00,WeatherCatV1.23B14,2013-11-28 12:25:00,
2013-11-28 04:30:00,46.3,34.4,29.89,East,90,0.0,0.0,63,0.00,,,0.00,WeatherCatV1.23B14,2013-11-28 12:30:00,
2013-11-28 04:35:00,46.3,34.4,29.89,East,90,0.0,0.0,63,0.00,,,0.00,WeatherCatV1.23B14,2013-11-28 12:35:00,
2013-11-28 04:40:00,46.3,34.4,29.89,East,90,0.0,0.0,63,0.00,,,0.00,WeatherCatV1.23B14,2013-11-28 12:40:00,
2013-11-28 04:45:00,46.3,34.4,29.89,East,90,0.0,0.0,63,0.00,,,0.00,WeatherCatV1.23B14,2013-11-28 12:45:00,
2013-11-28 04:50:00,46.3,34.4,29.89,East,90,0.0,0.0,63,0.00,,,0.00,WeatherCatV1.23B14,2013-11-28 12:50:00,
2013-11-28 04:55:00,46.3,34.4,29.89,East,90,0.0,0.0,63,0.00,,,0.00,WeatherCatV1.23B14,2013-11-28 12:55:00,
2013-11-28 05:00:00,46.3,34.4,29.89,East,90,0.0,0.0,63,0.00,,,0.00,WeatherCatV1.23B14,2013-11-28 13:00:00,
2013-11-28 05:05:00,46.3,34.4,29.89,East,90,0.0,0.0,63,0.00,,,0.00,WeatherCatV1.23B14,2013-11-28 13:05:00,
2013-11-28 05:10:00,45.5,34.8,29.89,East,90,0.0,0.0,66,0.00,,,0.00,WeatherCatV1.23B14,2013-11-28 13:10:00,
2013-11-28 05:15:00,45.5,34.8,29.89,East,90,0.0,0.0,66,0.00,,,0.00,WeatherCatV1.23B14,2013-11-28 13:15:00,
2013-11-28 05:20:00,45.5,34.8,29.89,East,90,0.0,0.0,66,0.00,,,0.00,WeatherCatV1.23B14,2013-11-28 13:20:00,
2013-11-28 05:25:00,45.5,34.8,29.89,East,90,0.0,0.0,66,0.00,,,0.00,WeatherCatV1.23B14,2013-11-28 13:25:00,
2013-11-28 05:30:00,45.5,34.8,29.89,East,90,0.0,0.0,66,0.00,,,0.00,WeatherCatV1.23B14,2013-11-28 13:30:00,
2013-11-28 05:35:00,45.5,34.8,29.89,East,90,0.0,0.0,66,0.00,,,0.00,WeatherCatV1.23B14,2013-11-28 13:35:00,
2013-11-28 05:40:00,45.5,34.8,29.89,East,90,0.0,0.0,66,0.00,,,0.00,WeatherCatV1.23B14,2013-11-28 13:40:00,
2013-11-28 05:45:00,45.5,34.8,29.89,East,90,0.0,0.0,66,0.00,,,0.00,WeatherCatV1.23B14,2013-11-28 13:45:00,
2013-11-28 05:50:00,45.5,34.8,29.89,East,90,0.0,0.0,66,0.00,,,0.00,WeatherCatV1.23B14,2013-11-28 13:50:00,
2013-11-28 05:55:00,45.5,34.8,29.89,East,90,0.0,0.0,66,0.00,,,0.00,WeatherCatV1.23B14,2013-11-28 13:55:00,
2013-11-28 06:00:00,45.5,34.8,29.89,East,90,0.0,0.0,66,0.00,,,0.00,WeatherCatV1.23B14,2013-11-28 14:00:00,
2013-11-28 06:05:00,45.5,34.8,29.89,East,90,0.0,0.0,66,0.00,,,0.00,WeatherCatV1.23B14,2013-11-28 14:05:00,
2013-11-28 06:10:00,46.6,35.8,29.90,East,90,0.0,0.0,66,0.00,,,0.00,WeatherCatV1.23B14,2013-11-28 14:10:00,
2013-11-28 06:15:00,46.6,35.8,29.90,East,90,0.0,0.0,66,0.00,,,0.00,WeatherCatV1.23B14,2013-11-28 14:15:00,
2013-11-28 06:20:00,46.6,35.8,29.90,East,90,0.0,0.0,66,0.00,,,0.00,WeatherCatV1.23B14,2013-11-28 14:20:00,
2013-11-28 06:25:00,46.6,35.8,29.90,East,90,0.0,0.0,66,0.00,,,0.00,WeatherCatV1.23B14,2013-11-28 14:25:00,
2013-11-28 06:30:00,46.6,35.8,29.90,East,90,0.0,0.0,66,0.00,,,0.00,WeatherCatV1.23B14,2013-11-28 14:30:00,
2013-11-28 06:35:00,46.6,35.8,29.90,East,90,0.0,0.0,66,0.00,,,0.00,WeatherCatV1.23B14,2013-11-28 14:35:00,
2013-11-28 06:40:00,46.6,35.8,29.90,East,90,0.0,0.0,66,0.00,,,0.00,WeatherCatV1.23B14,2013-11-28 14:40:00,
2013-11-28 06:45:00,46.6,35.8,29.90,East,90,0.0,0.0,66,0.00,,,0.00,WeatherCatV1.23B14,2013-11-28 14:45:00,
2013-11-28 06:50:00,46.6,35.8,29.90,East,90,0.0,0.0,66,0.00,,,0.00,WeatherCatV1.23B14,2013-11-28 14:50:00,
2013-11-28 06:55:00,46.6,35.8,29.90,East,90,0.0,0.0,66,0.00,,,0.00,WeatherCatV1.23B14,2013-11-28 14:55:00,
2013-11-28 07:00:00,46.6,35.8,29.90,East,90,0.0,0.0,66,0.00,,,0.00,WeatherCatV1.23B14,2013-11-28 15:00:00,
2013-11-28 07:05:00,46.6,35.8,29.90,East,90,0.0,0.0,66,0.00,,,0.00,WeatherCatV1.23B14,2013-11-28 15:05:00,
2013-11-28 07:10:00,46.2,34.7,29.91,East,90,0.0,0.0,64,0.00,,,0.00,WeatherCatV1.23B14,2013-11-28 15:10:00,
2013-11-28 07:15:00,46.2,34.7,29.91,East,90,0.0,0.0,64,0.00,,,0.00,WeatherCatV1.23B14,2013-11-28 15:15:00,
2013-11-28 07:20:00,46.2,34.7,29.91,East,90,0.0,0.0,64,0.00,,,0.00,WeatherCatV1.23B14,2013-11-28 15:20:00,
2013-11-28 07:25:00,46.2,34.7,29.91,East,90,0.0,0.0,64,0.00,,,0.00,WeatherCatV1.23B14,2013-11-28 15:25:00,
2013-11-28 07:30:00,46.2,34.7,29.91,East,90,0.0,0.0,64,0.00,,,0.00,WeatherCatV1.23B14,2013-11-28 15:30:00,
2013-11-28 07:35:00,46.2,34.7,29.91,East,90,0.0,0.0,64,0.00,,,0.00,WeatherCatV1.23B14,2013-11-28 15:35:00,
2013-11-28 07:40:00,46.2,34.7,29.91,East,90,0.0,0.0,64,0.00,,,0.00,WeatherCatV1.23B14,2013-11-28 15:40:00,
2013-11-28 07:45:00,46.2,34.7,29.91,East,90,0.0,0.0,64,0.00,,,0.00,WeatherCatV1.23B14,2013-11-28 15:45:00,
2013-11-28 07:50:00,46.2,34.7,29.91,East,90,0.0,0.0,64,0.00,,,0.00,WeatherCatV1.23B14,2013-11-28 15:50:00,
2013-11-28 07:55:00,46.2,34.7,29.91,East,90,0.0,0.0,64,0.00,,,0.00,WeatherCatV1.23B14,2013-11-28 15:55:00,
2013-11-28 08:00:00,46.2,34.7,29.91,East,90,0.0,0.0,64,0.00,,,0.00,WeatherCatV1.23B14,2013-11-28 16:00:00,
2013-11-28 08:05:00,46.2,34.7,29.91,East,90,0.0,0.0,64,0.00,,,0.00,WeatherCatV1.23B14,2013-11-28 16:05:00,
2013-11-28 08:10:00,45.5,35.6,29.92,East,90,0.0,0.0,68,0.00,,,0.00,WeatherCatV1.23B14,2013-11-28 16:10:00,
2013-11-28 08:15:00,45.5,35.6,29.92,East,90,0.0,0.0,68,0.00,,,0.00,WeatherCatV1.23B14,2013-11-28 16:15:00,
2013-11-28 08:20:00,45.5,35.6,29.92,East,90,0.0,0.0,68,0.00,,,0.00,WeatherCatV1.23B14,2013-11-28 16:20:00,
2013-11-28 08:25:00,45.5,35.6,29.92,East,90,0.0,0.0,68,0.00,,,0.00,WeatherCatV1.23B14,2013-11-28 16:25:00,
2013-11-28 08:30:00,45.5,35.6,29.92,East,90,0.0,0.0,68,0.00,,,0.00,WeatherCatV1.23B14,2013-11-28 16:30:00,
2013-11-28 08:35:00,45.5,35.6,29.92,East,90,0.0,0.0,68,0.00,,,0.00,WeatherCatV1.23B14,2013-11-28 16:35:00,
2013-11-28 08:40:00,45.5,35.6,29.92,East,90,0.0,0.0,68,0.00,,,0.00,WeatherCatV1.23B14,2013-11-28 16:40:00,
2013-11-28 08:45:00,45.5,35.6,29.92,East,90,0.0,0.0,68,0.00,,,0.00,WeatherCatV1.23B14,2013-11-28 16:45:00,
2013-11-28 08:50:00,45.5,35.6,29.92,East,90,0.0,0.0,68,0.00,,,0.00,WeatherCatV1.23B14,2013-11-28 16:50:00,
2013-11-28 08:55:00,45.5,35.6,29.92,East,90,0.0,0.0,68,0.00,,,0.00,WeatherCatV1.23B14,2013-11-28 16:55:00,
2013-11-28 09:00:00,45.5,35.6,29.92,East,90,0.0,0.0,68,0.00,,,0.00,WeatherCatV1.23B14,2013-11-28 17:00:00,
2013-11-28 09:05:00,45.5,35.6,29.92,East,90,0.0,0.0,68,0.00,,,0.00,WeatherCatV1.23B14,2013-11-28 17:05:00,
2013-11-28 09:10:00,51.0,36.8,29.93,East,90,0.0,0.0,58,0.00,,,0.00,WeatherCatV1.23B14,2013-11-28 17:10:00,
2013-11-28 09:15:00,51.0,36.8,29.93,East,90,0.0,0.0,58,0.00,,,0.00,WeatherCatV1.23B14,2013-11-28 17:15:00,
2013-11-28 09:20:00,51.0,36.8,29.93,East,90,0.0,0.0,58,0.00,,,0.00,WeatherCatV1.23B14,2013-11-28 17:20:00,
2013-11-28 09:25:00,51.0,36.8,29.93,East,90,0.0,0.0,58,0.00,,,0.00,WeatherCatV1.23B14,2013-11-28 17:25:00,
2013-11-28 09:30:00,51.0,36.8,29.93,East,90,0.0,0.0,58,0.00,,,0.00,WeatherCatV1.23B14,2013-11-28 17:30:00,
2013-11-28 09:35:00,51.0,36.8,29.93,East,90,0.0,0.0,58,0.00,,,0.00,WeatherCatV1.23B14,2013-11-28 17:35:00,
2013-11-28 09:40:00,51.0,36.8,29.93,East,90,0.0,0.0,58,0.00,,,0.00,WeatherCatV1.23B14,2013-11-28 17:40:00,
2013-11-28 09:45:00,51.0,36.8,29.93,East,90,0.0,0.0,58,0.00,,,0.00,WeatherCatV1.23B14,2013-11-28 17:45:00,
2013-11-28 09:50:00,51.0,36.8,29.93,East,90,0.0,0.0,58,0.00,,,0.00,WeatherCatV1.23B14,2013-11-28 17:50:00,
2013-11-28 09:55:00,51.0,36.8,29.93,East,90,0.0,0.0,58,0.00,,,0.00,WeatherCatV1.23B14,2013-11-28 17:55:00,
2013-11-28 10:00:00,51.0,36.8,29.93,East,90,0.0,0.0,58,0.00,,,0.00,WeatherCatV1.23B14,2013-11-28 18:00:00,
2013-11-28 10:05:00,51.0,36.8,29.93,East,90,0.0,0.0,58,0.00,,,0.00,WeatherCatV1.23B14,2013-11-28 18:05:00,
2013-11-28 10:10:00,54.7,38.4,29.94,East,90,0.0,0.0,54,0.00,,,0.00,WeatherCatV1.23B14,2013-11-28 18:10:00,
2013-11-28 10:15:00,54.7,38.4,29.94,East,90,0.0,0.0,54,0.00,,,0.00,WeatherCatV1.23B14,2013-11-28 18:15:00,
2013-11-28 10:20:00,54.7,38.4,29.94,East,90,0.0,0.0,54,0.00,,,0.00,WeatherCatV1.23B14,2013-11-28 18:20:00,
2013-11-28 10:25:00,54.7,38.4,29.94,East,90,0.0,0.0,54,0.00,,,0.00,WeatherCatV1.23B14,2013-11-28 18:25:00,
2013-11-28 10:30:00,54.7,38.4,29.94,East,90,0.0,0.0,54,0.00,,,0.00,WeatherCatV1.23B14,2013-11-28 18:30:00,
2013-11-28 10:35:00,54.7,38.4,29.94,East,90,0.0,0.0,54,0.00,,,0.00,WeatherCatV1.23B14,2013-11-28 18:35:00,
2013-11-28 10:40:00,54.7,38.4,29.94,East,90,0.0,0.0,54,0.00,,,0.00,WeatherCatV1.23B14,2013-11-28 18:40:00,
2013-11-28 10:45:00,54.7,38.4,29.94,East,90,0.0,0.0,54,0.00,,,0.00,WeatherCatV1.23B14,2013-11-28 18:45:00,
2013-11-28 10:50:00,54.7,38.4,29.94,East,90,0.0,0.0,54,0.00,,,0.00,WeatherCatV1.23B14,2013-11-28 18:50:00,
2013-11-28 10:55:00,54.7,38.4,29.94,East,90,0.0,0.0,54,0.00,,,0.00,WeatherCatV1.23B14,2013-11-28 18:55:00,
2013-11-28 11:00:00,54.7,38.4,29.94,East,90,0.0,0.0,54,0.00,,,0.00,WeatherCatV1.23B14,2013-11-28 19:00:00,
2013-11-28 11:05:00,54.7,38.4,29.94,East,90,0.0,0.0,54,0.00,,,0.00,WeatherCatV1.23B14,2013-11-28 19:05:00,
2013-11-28 11:10:00,61.4,36.2,29.93,East,90,0.0,0.0,39,0.00,,,0.00,WeatherCatV1.23B14,2013-11-28 19:10:00,
2013-11-28 11:15:00,61.4,36.2,29.93,East,90,0.0,0.0,39,0.00,,,0.00,WeatherCatV1.23B14,2013-11-28 19:15:00,
2013-11-28 11:20:00,61.4,36.2,29.93,East,90,0.0,0.0,39,0.00,,,0.00,WeatherCatV1.23B14,2013-11-28 19:20:00,
2013-11-28 11:25:00,61.4,36.2,29.93,East,90,0.0,0.0,39,0.00,,,0.00,WeatherCatV1.23B14,2013-11-28 19:25:00,
2013-11-28 11:30:00,61.4,36.2,29.93,East,90,0.0,0.0,39,0.00,,,0.00,WeatherCatV1.23B14,2013-11-28 19:30:00,
2013-11-28 11:35:00,61.4,36.2,29.93,East,90,0.0,0.0,39,0.00,,,0.00,WeatherCatV1.23B14,2013-11-28 19:35:00,
2013-11-28 11:40:00,61.4,36.2,29.93,East,90,0.0,0.0,39,0.00,,,0.00,WeatherCatV1.23B14,2013-11-28 19:40:00,
2013-11-28 11:45:00,61.4,36.2,29.93,East,90,0.0,0.0,39,0.00,,,0.00,WeatherCatV1.23B14,2013-11-28 19:45:00,
2013-11-28 11:50:00,61.4,36.2,29.93,East,90,0.0,0.0,39,0.00,,,0.00,WeatherCatV1.23B14,2013-11-28 19:50:00,
2013-11-28 11:55:00,61.4,36.2,29.93,East,90,0.0,0.0,39,0.00,,,0.00,WeatherCatV1.23B14,2013-11-28 19:55:00,
2013-11-28 12:00:00,61.4,36.2,29.93,East,90,0.0,0.0,39,0.00,,,0.00,WeatherCatV1.23B14,2013-11-28 20:00:00,
2013-11-28 12:05:00,61.4,36.2,29.93,East,90,0.0,0.0,39,0.00,,,0.00,WeatherCatV1.23B14,2013-11-28 20:05:00,
2013-11-28 12:10:00,62.3,36.4,29.92,WSW,248,0.0,3.0,38,0.00,,,0.00,WeatherCatV1.23B14,2013-11-28 20:10:00,
2013-11-28 12:15:00,62.3,36.4,29.92,WSW,248,0.0,3.0,38,0.00,,,0.00,WeatherCatV1.23B14,2013-11-28 20:15:00,
2013-11-28 12:20:00,62.3,36.4,29.92,WSW,248,0.0,3.0,38,0.00,,,0.00,WeatherCatV1.23B14,2013-11-28 20:20:00,
2013-11-28 12:25:00,62.3,36.4,29.92,WSW,248,0.0,3.0,38,0.00,,,0.00,WeatherCatV1.23B14,2013-11-28 20:25:00,
2013-11-28 12:30:00,62.3,36.4,29.92,WSW,248,0.0,3.0,38,0.00,,,0.00,WeatherCatV1.23B14,2013-11-28 20:30:00,
2013-11-28 12:35:00,62.3,36.4,29.92,WSW,248,0.0,3.0,38,0.00,,,0.00,WeatherCatV1.23B14,2013-11-28 20:35:00,
2013-11-28 12:40:00,62.3,36.4,29.92,WSW,248,0.0,3.0,38,0.00,,,0.00,WeatherCatV1.23B14,2013-11-28 20:40:00,
2013-11-28 12:45:00,62.3,36.4,29.92,WSW,248,0.0,3.0,38,0.00,,,0.00,WeatherCatV1.23B14,2013-11-28 20:45:00,
2013-11-28 12:50:00,62.3,36.4,29.92,WSW,248,0.0,3.0,38,0.00,,,0.00,WeatherCatV1.23B14,2013-11-28 20:50:00,
2013-11-28 12:55:00,62.3,36.4,29.92,WSW,248,0.0,3.0,38,0.00,,,0.00,WeatherCatV1.23B14,2013-11-28 20:55:00,
2013-11-28 13:00:00,62.3,36.4,29.92,WSW,248,0.0,3.0,38,0.00,,,0.00,WeatherCatV1.23B14,2013-11-28 21:00:00,
2013-11-28 13:05:00,62.3,36.4,29.92,WSW,248,0.0,3.0,38,0.00,,,0.00,WeatherCatV1.23B14,2013-11-28 21:05:00,
2013-11-28 13:10:00,63.5,35.3,29.92,West,270,0.0,3.0,35,0.00,,,0.00,WeatherCatV1.23B14,2013-11-28 21:10:00,
2013-11-28 13:15:00,63.5,35.3,29.92,West,270,0.0,3.0,35,0.00,,,0.00,WeatherCatV1.23B14,2013-11-28 21:15:00,
2013-11-28 13:20:00,63.5,35.3,29.92,West,270,0.0,3.0,35,0.00,,,0.00,WeatherCatV1.23B14,2013-11-28 21:20:00,
2013-11-28 13:25:00,63.5,35.3,29.92,West,270,0.0,3.0,35,0.00,,,0.00,WeatherCatV1.23B14,2013-11-28 21:25:00,
2013-11-28 13:30:00,63.5,35.3,29.92,West,270,0.0,3.0,35,0.00,,,0.00,WeatherCatV1.23B14,2013-11-28 21:30:00,
2013-11-28 13:35:00,63.5,35.3,29.92,West,270,0.0,3.0,35,0.00,,,0.00,WeatherCatV1.23B14,2013-11-28 21:35:00,
2013-11-28 13:40:00,63.5,35.3,29.92,West,270,0.0,3.0,35,0.00,,,0.00,WeatherCatV1.23B14,2013-11-28 21:40:00,
2013-11-28 13:45:00,63.5,35.3,29.92,West,270,0.0,3.0,35,0.00,,,0.00,WeatherCatV1.23B14,2013-11-28 21:45:00,
2013-11-28 13:50:00,63.5,35.3,29.92,West,270,0.0,3.0,35,0.00,,,0.00,WeatherCatV1.23B14,2013-11-28 21:50:00,
2013-11-28 13:55:00,63.5,35.3,29.92,West,270,0.0,3.0,35,0.00,,,0.00,WeatherCatV1.23B14,2013-11-28 21:55:00,
2013-11-28 14:00:00,63.5,35.3,29.92,West,270,0.0,3.0,35,0.00,,,0.00,WeatherCatV1.23B14,2013-11-28 22:00:00,
2013-11-28 14:05:00,63.5,35.3,29.92,West,270,0.0,3.0,35,0.00,,,0.00,WeatherCatV1.23B14,2013-11-28 22:05:00,
2013-11-28 14:10:00,62.1,36.8,29.93,WSW,248,0.0,2.0,39,0.00,,,0.00,WeatherCatV1.23B14,2013-11-28 22:10:00,
2013-11-28 14:15:00,62.1,36.8,29.93,WSW,248,0.0,2.0,39,0.00,,,0.00,WeatherCatV1.23B14,2013-11-28 22:15:00,
2013-11-28 14:20:00,62.1,36.8,29.93,WSW,248,0.0,2.0,39,0.00,,,0.00,WeatherCatV1.23B14,2013-11-28 22:20:00,
2013-11-28 14:25:00,62.1,36.8,29.93,WSW,248,0.0,2.0,39,0.00,,,0.00,WeatherCatV1.23B14,2013-11-28 22:25:00,
2013-11-28 14:30:00,62.1,36.8,29.93,WSW,248,0.0,2.0,39,0.00,,,0.00,WeatherCatV1.23B14,2013-11-28 22:30:00,
2013-11-28 14:35:00,62.1,36.8,29.93,WSW,248,0.0,2.0,39,0.00,,,0.00,WeatherCatV1.23B14,2013-11-28 22:35:00,
2013-11-28 14:40:00,62.1,36.8,29.93,WSW,248,0.0,2.0,39,0.00,,,0.00,WeatherCatV1.23B14,2013-11-28 22:40:00,
2013-11-28 14:45:00,62.1,36.8,29.93,WSW,248,0.0,2.0,39,0.00,,,0.00,WeatherCatV1.23B14,2013-11-28 22:45:00,
2013-11-28 14:50:00,62.1,36.8,29.93,WSW,248,0.0,2.0,39,0.00,,,0.00,WeatherCatV1.23B14,2013-11-28 22:50:00,
2013-11-28 14:55:00,62.1,36.8,29.93,WSW,248,0.0,2.0,39,0.00,,,0.00,WeatherCatV1.23B14,2013-11-28 22:55:00,
2013-11-28 15:00:00,62.1,36.8,29.93,WSW,248,0.0,2.0,39,0.00,,,0.00,WeatherCatV1.23B14,2013-11-28 23:00:00,
2013-11-28 15:05:00,62.1,36.8,29.93,WSW,248,0.0,2.0,39,0.00,,,0.00,WeatherCatV1.23B14,2013-11-28 23:05:00,
2013-11-28 15:10:00,61.4,38.1,29.93,West,270,0.0,1.0,42,0.00,,,0.00,WeatherCatV1.23B14,2013-11-28 23:10:00,
2013-11-28 15:15:00,61.4,38.1,29.93,West,270,0.0,1.0,42,0.00,,,0.00,WeatherCatV1.23B14,2013-11-28 23:15:00,
2013-11-28 15:20:00,61.4,38.1,29.93,West,270,0.0,1.0,42,0.00,,,0.00,WeatherCatV1.23B14,2013-11-28 23:20:00,
2013-11-28 15:25:00,61.4,38.1,29.93,West,270,0.0,1.0,42,0.00,,,0.00,WeatherCatV1.23B14,2013-11-28 23:25:00,
2013-11-28 15:30:00,61.4,38.1,29.93,West,270,0.0,1.0,42,0.00,,,0.00,WeatherCatV1.23B14,2013-11-28 23:30:00,
2013-11-28 15:35:00,61.4,38.1,29.93,West,270,0.0,1.0,42,0.00,,,0.00,WeatherCatV1.23B14,2013-11-28 23:35:00,
2013-11-28 15:40:00,61.4,38.1,29.93,West,270,0.0,1.0,42,0.00,,,0.00,WeatherCatV1.23B14,2013-11-28 23:40:00,
2013-11-28 15:45:00,61.4,38.1,29.93,West,270,0.0,1.0,42,0.00,,,0.00,WeatherCatV1.23B14,2013-11-28 23:45:00,
2013-11-28 15:50:00,61.4,38.1,29.93,West,270,0.0,1.0,42,0.00,,,0.00,WeatherCatV1.23B14,2013-11-28 23:50:00,
2013-11-28 15:55:00,61.4,38.1,29.93,West,270,0.0,1.0,42,0.00,,,0.00,WeatherCatV1.23B14,2013-11-28 23:55:00,
2013-11-28 16:00:00,61.4,38.1,29.93,West,270,0.0,1.0,42,0.00,,,0.00,WeatherCatV1.23B14,2013-11-29 00:00:00,
2013-11-28 16:05:00,61.4,38.1,29.93,West,270,0.0,1.0,42,0.00,,,0.00,WeatherCatV1.23B14,2013-11-29 00:05:00,
2013-11-28 16:10:00,57.9,39.4,29.95,West,270,0.0,0.0,50,0.00,,,0.00,WeatherCatV1.23B14,2013-11-29 00:10:00,
2013-11-28 16:15:00,57.9,39.4,29.95,West,270,0.0,0.0,50,0.00,,,0.00,WeatherCatV1.23B14,2013-11-29 00:15:00,
2013-11-28 16:20:00,57.9,39.4,29.95,West,270,0.0,0.0,50,0.00,,,0.00,WeatherCatV1.23B14,2013-11-29 00:20:00,
2013-11-28 16:25:00,57.9,39.4,29.95,West,270,0.0,0.0,50,0.00,,,0.00,WeatherCatV1.23B14,2013-11-29 00:25:00,
2013-11-28 16:30:00,57.9,39.4,29.95,West,270,0.0,0.0,50,0.00,,,0.00,WeatherCatV1.23B14,2013-11-29 00:30:00,
2013-11-28 16:35:00,57.9,39.4,29.95,West,270,0.0,0.0,50,0.00,,,0.00,WeatherCatV1.23B14,2013-11-29 00:35:00,
2013-11-28 16:40:00,57.9,39.4,29.95,West,270,0.0,0.0,50,0.00,,,0.00,WeatherCatV1.23B14,2013-11-29 00:40:00,
2013-11-28 16:45:00,57.9,39.4,29.95,West,270,0.0,0.0,50,0.00,,,0.00,WeatherCatV1.23B14,2013-11-29 00:45:00,
2013-11-28 16:50:00,57.9,39.4,29.95,West,270,0.0,0.0,50,0.00,,,0.00,WeatherCatV1.23B14,2013-11-29 00:50:00,
2013-11-28 16:55:00,57.9,39.4,29.95,West,270,0.0,0.0,50,0.00,,,0.00,WeatherCatV1.23B14,2013-11-29 00:55:00,
2013-11-28 17:00:00,57.9,39.4,29.95,West,270,0.0,0.0,50,0.00,,,0.00,WeatherCatV1.23B14,2013-11-29 01:00:00,
2013-11-28 17:05:00,57.9,39.4,29.95,West,270,0.0,0.0,50,0.00,,,0.00,WeatherCatV1.23B14,2013-11-29 01:05:00,
2013-11-28 17:10:00,54.4,38.6,29.96,West,270,0.0,0.0,55,0.00,,,0.00,WeatherCatV1.23B14,2013-11-29 01:10:00,
2013-11-28 17:15:00,54.4,38.6,29.96,West,270,0.0,0.0,55,0.00,,,0.00,WeatherCatV1.23B14,2013-11-29 01:15:00,
2013-11-28 17:20:00,54.4,38.6,29.96,West,270,0.0,0.0,55,0.00,,,0.00,WeatherCatV1.23B14,2013-11-29 01:20:00,
2013-11-28 17:25:00,54.4,38.6,29.96,West,270,0.0,0.0,55,0.00,,,0.00,WeatherCatV1.23B14,2013-11-29 01:25:00,
2013-11-28 17:30:00,54.4,38.6,29.96,West,270,0.0,0.0,55,0.00,,,0.00,WeatherCatV1.23B14,2013-11-29 01:30:00,
2013-11-28 17:35:00,54.4,38.6,29.96,West,270,0.0,0.0,55,0.00,,,0.00,WeatherCatV1.23B14,2013-11-29 01:35:00,
2013-11-28 17:40:00,54.4,38.6,29.96,West,270,0.0,0.0,55,0.00,,,0.00,WeatherCatV1.23B14,2013-11-29 01:40:00,
2013-11-28 17:45:00,54.4,38.6,29.96,West,270,0.0,0.0,55,0.00,,,0.00,WeatherCatV1.23B14,2013-11-29 01:45:00,
2013-11-28 17:50:00,54.4,38.6,29.96,West,270,0.0,0.0,55,0.00,,,0.00,WeatherCatV1.23B14,2013-11-29 01:50:00,
2013-11-28 17:55:00,54.4,38.6,29.96,West,270,0.0,0.0,55,0.00,,,0.00,WeatherCatV1.23B14,2013-11-29 01:55:00,
2013-11-28 18:00:00,54.4,38.6,29.96,West,270,0.0,0.0,55,0.00,,,0.00,WeatherCatV1.23B14,2013-11-29 02:00:00,
2013-11-28 18:05:00,54.4,38.6,29.96,West,270,0.0,0.0,55,0.00,,,0.00,WeatherCatV1.23B14,2013-11-29 02:05:00,
2013-11-28 18:10:00,51.1,37.7,29.97,West,270,0.0,0.0,60,0.00,,,0.00,WeatherCatV1.23B14,2013-11-29 02:10:00,
2013-11-28 18:15:00,51.1,37.7,29.97,West,270,0.0,0.0,60,0.00,,,0.00,WeatherCatV1.23B14,2013-11-29 02:15:00,
2013-11-28 18:20:00,51.1,37.7,29.97,West,270,0.0,0.0,60,0.00,,,0.00,WeatherCatV1.23B14,2013-11-29 02:20:00,
2013-11-28 18:25:00,51.1,37.7,29.97,West,270,0.0,0.0,60,0.00,,,0.00,WeatherCatV1.23B14,2013-11-29 02:25:00,
2013-11-28 18:30:00,51.1,37.7,29.97,West,270,0.0,0.0,60,0.00,,,0.00,WeatherCatV1.23B14,2013-11-29 02:30:00,
2013-11-28 18:35:00,51.1,37.7,29.97,West,270,0.0,0.0,60,0.00,,,0.00,WeatherCatV1.23B14,2013-11-29 02:35:00,
2013-11-28 18:40:00,51.1,37.7,29.97,West,270,0.0,0.0,60,0.00,,,0.00,WeatherCatV1.23B14,2013-11-29 02:40:00,
2013-11-28 18:45:00,51.1,37.7,29.97,West,270,0.0,0.0,60,0.00,,,0.00,WeatherCatV1.23B14,2013-11-29 02:45:00,
2013-11-28 18:50:00,51.1,37.7,29.97,West,270,0.0,0.0,60,0.00,,,0.00,WeatherCatV1.23B14,2013-11-29 02:50:00,
2013-11-28 18:55:00,51.1,37.7,29.97,West,270,0.0,0.0,60,0.00,,,0.00,WeatherCatV1.23B14,2013-11-29 02:55:00,
2013-11-28 19:00:00,51.1,37.7,29.97,West,270,0.0,0.0,60,0.00,,,0.00,WeatherCatV1.23B14,2013-11-29 03:00:00,
2013-11-28 19:05:00,51.1,37.7,29.97,West,270,0.0,0.0,60,0.00,,,0.00,WeatherCatV1.23B14,2013-11-29 03:05:00,
2013-11-28 19:10:00,48.1,38.0,30.00,West,270,0.0,0.0,68,0.00,,,0.00,WeatherCatV1.23B14,2013-11-29 03:10:00,
2013-11-28 19:15:00,48.1,38.0,30.00,West,270,0.0,0.0,68,0.00,,,0.00,WeatherCatV1.23B14,2013-11-29 03:15:00,
2013-11-28 19:20:00,48.1,38.0,30.00,West,270,0.0,0.0,68,0.00,,,0.00,WeatherCatV1.23B14,2013-11-29 03:20:00,
2013-11-28 19:25:00,48.1,38.0,30.00,West,270,0.0,0.0,68,0.00,,,0.00,WeatherCatV1.23B14,2013-11-29 03:25:00,
2013-11-28 19:30:00,48.1,38.0,30.00,West,270,0.0,0.0,68,0.00,,,0.00,WeatherCatV1.23B14,2013-11-29 03:30:00,
2013-11-28 19:35:00,48.1,38.0,30.00,West,270,0.0,0.0,68,0.00,,,0.00,WeatherCatV1.23B14,2013-11-29 03:35:00,
2013-11-28 19:40:00,48.1,38.0,30.00,West,270,0.0,0.0,68,0.00,,,0.00,WeatherCatV1.23B14,2013-11-29 03:40:00,
2013-11-28 19:45:00,48.1,38.0,30.00,West,270,0.0,0.0,68,0.00,,,0.00,WeatherCatV1.23B14,2013-11-29 03:45:00,
2013-11-28 19:50:00,48.1,38.0,30.00,West,270,0.0,0.0,68,0.00,,,0.00,WeatherCatV1.23B14,2013-11-29 03:50:00,
2013-11-28 19:55:00,48.1,38.0,30.00,West,270,0.0,0.0,68,0.00,,,0.00,WeatherCatV1.23B14,2013-11-29 03:55:00,
2013-11-28 20:00:00,48.1,38.0,30.00,West,270,0.0,0.0,68,0.00,,,0.00,WeatherCatV1.23B14,2013-11-29 04:00:00,
2013-11-28 20:05:00,48.1,38.0,30.00,West,270,0.0,0.0,68,0.00,,,0.00,WeatherCatV1.23B14,2013-11-29 04:05:00,
2013-11-28 20:10:00,46.8,37.9,30.02,West,270,0.0,0.0,71,0.00,,,0.00,WeatherCatV1.23B14,2013-11-29 04:10:00,
2013-11-28 20:15:00,46.8,37.9,30.02,West,270,0.0,0.0,71,0.00,,,0.00,WeatherCatV1.23B14,2013-11-29 04:15:00,
2013-11-28 20:20:00,46.8,37.9,30.02,West,270,0.0,0.0,71,0.00,,,0.00,WeatherCatV1.23B14,2013-11-29 04:20:00,
2013-11-28 20:25:00,46.8,37.9,30.02,West,270,0.0,0.0,71,0.00,,,0.00,WeatherCatV1.23B14,2013-11-29 04:25:00,
2013-11-28 20:30:00,46.8,37.9,30.02,West,270,0.0,0.0,71,0.00,,,0.00,WeatherCatV1.23B14,2013-11-29 04:30:00,
2013-11-28 20:35:00,46.8,37.9,30.02,West,270,0.0,0.0,71,0.00,,,0.00,WeatherCatV1.23B14,2013-11-29 04:35:00,
2013-11-28 20:40:00,46.8,37.9,30.02,West,270,0.0,0.0,71,0.00,,,0.00,WeatherCatV1.23B14,2013-11-29 04:40:00,
2013-11-28 20:45:00,46.8,37.9,30.02,West,270,0.0,0.0,71,0.00,,,0.00,WeatherCatV1.23B14,2013-11-29 04:45:00,
2013-11-28 20:50:00,46.8,37.9,30.02,West,270,0.0,0.0,71,0.00,,,0.00,WeatherCatV1.23B14,2013-11-29 04:50:00,
2013-11-28 20:55:00,46.8,37.9,30.02,West,270,0.0,0.0,71,0.00,,,0.00,WeatherCatV1.23B14,2013-11-29 04:55:00,
2013-11-28 21:00:00,46.8,37.9,30.02,West,270,0.0,0.0,71,0.00,,,0.00,WeatherCatV1.23B14,2013-11-29 05:00:00,
2013-11-28 21:05:00,46.8,37.9,30.02,West,270,0.0,0.0,71,0.00,,,0.00,WeatherCatV1.23B14,2013-11-29 05:05:00,
2013-11-28 21:10:00,44.6,37.5,30.04,West,270,0.0,0.0,76,0.00,,,0.00,WeatherCatV1.23B14,2013-11-29 05:10:00,
2013-11-28 21:15:00,44.6,37.5,30.04,West,270,0.0,0.0,76,0.00,,,0.00,WeatherCatV1.23B14,2013-11-29 05:15:00,
2013-11-28 21:20:00,44.6,37.5,30.04,West,270,0.0,0.0,76,0.00,,,0.00,WeatherCatV1.23B14,2013-11-29 05:20:00,
2013-11-28 21:25:00,44.6,37.5,30.04,West,270,0.0,0.0,76,0.00,,,0.00,WeatherCatV1.23B14,2013-11-29 05:25:00,
2013-11-28 21:30:00,44.6,37.5,30.04,West,270,0.0,0.0,76,0.00,,,0.00,WeatherCatV1.23B14,2013-11-29 05:30:00,
2013-11-28 21:35:00,44.6,37.5,30.04,West,270,0.0,0.0,76,0.00,,,0.00,WeatherCatV1.23B14,2013-11-29 05:35:00,
2013-11-28 21:40:00,44.6,37.5,30.04,West,270,0.0,0.0,76,0.00,,,0.00,WeatherCatV1.23B14,2013-11-29 05:40:00,
2013-11-28 21:45:00,44.6,37.5,30.04,West,270,0.0,0.0,76,0.00,,,0.00,WeatherCatV1.23B14,2013-11-29 05:45:00,
2013-11-28 21:50:00,44.6,37.5,30.04,West,270,0.0,0.0,76,0.00,,,0.00,WeatherCatV1.23B14,2013-11-29 05:50:00,
2013-11-28 21:55:00,44.6,37.5,30.04,West,270,0.0,0.0,76,0.00,,,0.00,WeatherCatV1.23B14,2013-11-29 05:55:00,
2013-11-28 22:00:00,44.6,37.5,30.04,West,270,0.0,0.0,76,0.00,,,0.00,WeatherCatV1.23B14,2013-11-29 06:00:00,
2013-11-28 22:05:00,44.6,37.5,30.04,West,270,0.0,0.0,76,0.00,,,0.00,WeatherCatV1.23B14,2013-11-29 06:05:00,
2013-11-28 22:10:00,43.5,36.8,30.06,West,270,0.0,0.0,77,0.00,,,0.00,WeatherCatV1.23B14,2013-11-29 06:10:00,
2013-11-28 22:15:00,43.5,36.8,30.06,West,270,0.0,0.0,77,0.00,,,0.00,WeatherCatV1.23B14,2013-11-29 06:15:00,
2013-11-28 22:20:00,43.5,36.8,30.06,West,270,0.0,0.0,77,0.00,,,0.00,WeatherCatV1.23B14,2013-11-29 06:20:00,
2013-11-28 22:25:00,43.5,36.8,30.06,West,270,0.0,0.0,77,0.00,,,0.00,WeatherCatV1.23B14,2013-11-29 06:25:00,
2013-11-28 22:30:00,43.5,36.8,30.06,West,270,0.0,0.0,77,0.00,,,0.00,WeatherCatV1.23B14,2013-11-29 06:30:00,
2013-11-28 22:35:00,43.5,36.8,30.06,West,270,0.0,0.0,77,0.00,,,0.00,WeatherCatV1.23B14,2013-11-29 06:35:00,
2013-11-28 22:40:00,43.5,36.8,30.06,West,270,0.0,0.0,77,0.00,,,0.00,WeatherCatV1.23B14,2013-11-29 06:40:00,
2013-11-28 22:45:00,43.5,36.8,30.06,West,270,0.0,0.0,77,0.00,,,0.00,WeatherCatV1.23B14,2013-11-29 06:45:00,
2013-11-28 22:50:00,43.5,36.8,30.06,West,270,0.0,0.0,77,0.00,,,0.00,WeatherCatV1.23B14,2013-11-29 06:50:00,
2013-11-28 22:55:00,43.5,36.8,30.06,West,270,0.0,0.0,77,0.00,,,0.00,WeatherCatV1.23B14,2013-11-29 06:55:00,
2013-11-28 23:00:00,43.5,36.8,30.06,West,270,0.0,0.0,77,0.00,,,0.00,WeatherCatV1.23B14,2013-11-29 07:00:00,
2013-11-28 23:05:00,43.5,36.8,30.06,West,270,0.0,0.0,77,0.00,,,0.00,WeatherCatV1.23B14,2013-11-29 07:05:00,
2013-11-28 23:10:00,43.5,36.8,30.07,West,270,0.0,0.0,77,0.00,,,0.00,WeatherCatV1.23B14,2013-11-29 07:10:00,
2013-11-28 23:15:00,43.5,36.8,30.07,West,270,0.0,0.0,77,0.00,,,0.00,WeatherCatV1.23B14,2013-11-29 07:15:00,
2013-11-28 23:20:00,43.5,36.8,30.07,West,270,0.0,0.0,77,0.00,,,0.00,WeatherCatV1.23B14,2013-11-29 07:20:00,
2013-11-28 23:25:00,43.5,36.8,30.07,West,270,0.0,0.0,77,0.00,,,0.00,WeatherCatV1.23B14,2013-11-29 07:25:00,
2013-11-28 23:30:00,43.5,36.8,30.07,West,270,0.0,0.0,77,0.00,,,0.00,WeatherCatV1.23B14,2013-11-29 07:30:00,
2013-11-28 23:35:00,43.5,36.8,30.07,West,270,0.0,0.0,77,0.00,,,0.00,WeatherCatV1.23B14,2013-11-29 07:35:00,
2013-11-28 23:40:00,43.5,36.8,30.07,West,270,0.0,0.0,77,0.00,,,0.00,WeatherCatV1.23B14,2013-11-29 07:40:00,
2013-11-28 23:45:00,43.5,36.8,30.07,West,270,0.0,0.0,77,0.00,,,0.00,WeatherCatV1.23B14,2013-11-29 07:45:00,
2013-11-28 23:50:00,43.5,36.8,30.07,West,270,0.0,0.0,77,0.00,,,0.00,WeatherCatV1.23B14,2013-11-29 07:50:00,
2013-11-28 23:55:00,43.5,36.8,30.07,West,270,0.0,0.0,77,0.00,,,0.00,WeatherCatV1.23B14,2013-11-29 07:55:00,